sensor_id;sensor_type;location;lat;lon;timestamp;temperature;humidity
74364;DHT22;62797;49.740;10.154;2023-08-20T00:00:18;24.90;50.20
74364;DHT22;62797;49.740;10.154;2023-08-20T00:02:46;24.80;50.70
74364;DHT22;62797;49.740;10.154;2023-08-20T00:05:13;24.90;50.00
74364;DHT22;62797;49.740;10.154;2023-08-20T00:07:40;24.90;49.90
74364;DHT22;62797;49.740;10.154;2023-08-20T00:10:06;24.80;49.80
74364;DHT22;62797;49.740;10.154;2023-08-20T00:12:32;24.80;50.00
74364;DHT22;62797;49.740;10.154;2023-08-20T00:15:01;24.70;51.20
74364;DHT22;62797;49.740;10.154;2023-08-20T00:17:37;24.70;51.00
74364;DHT22;62797;49.740;10.154;2023-08-20T00:20:07;24.60;51.40
74364;DHT22;62797;49.740;10.154;2023-08-20T00:22:45;24.50;51.80
74364;DHT22;62797;49.740;10.154;2023-08-20T00:25:16;24.50;51.90
74364;DHT22;62797;49.740;10.154;2023-08-20T00:27:43;24.50;51.90
74364;DHT22;62797;49.740;10.154;2023-08-20T00:30:10;24.50;52.00
74364;DHT22;62797;49.740;10.154;2023-08-20T00:32:37;24.40;52.30
74364;DHT22;62797;49.740;10.154;2023-08-20T00:35:03;24.30;53.20
74364;DHT22;62797;49.740;10.154;2023-08-20T00:37:30;24.20;54.00
74364;DHT22;62797;49.740;10.154;2023-08-20T00:39:56;24.20;54.20
74364;DHT22;62797;49.740;10.154;2023-08-20T00:42:24;24.20;53.80
74364;DHT22;62797;49.740;10.154;2023-08-20T00:44:52;24.20;54.00
74364;DHT22;62797;49.740;10.154;2023-08-20T00:47:21;24.20;54.00
74364;DHT22;62797;49.740;10.154;2023-08-20T00:49:47;24.20;54.30
74364;DHT22;62797;49.740;10.154;2023-08-20T00:52:14;24.20;54.30
74364;DHT22;62797;49.740;10.154;2023-08-20T00:54:40;24.20;54.80
74364;DHT22;62797;49.740;10.154;2023-08-20T00:57:07;24.10;55.00
74364;DHT22;62797;49.740;10.154;2023-08-20T00:59:34;24.10;54.90
74364;DHT22;62797;49.740;10.154;2023-08-20T01:02:00;24.20;54.90
74364;DHT22;62797;49.740;10.154;2023-08-20T01:04:28;24.20;54.50
74364;DHT22;62797;49.740;10.154;2023-08-20T01:07:14;24.10;54.90
74364;DHT22;62797;49.740;10.154;2023-08-20T01:10:02;24.10;54.70
74364;DHT22;62797;49.740;10.154;2023-08-20T01:12:31;24.10;55.40
74364;DHT22;62797;49.740;10.154;2023-08-20T01:14:57;24.10;55.80
74364;DHT22;62797;49.740;10.154;2023-08-20T01:17:24;24.00;55.80
74364;DHT22;62797;49.740;10.154;2023-08-20T01:19:49;24.00;55.50
74364;DHT22;62797;49.740;10.154;2023-08-20T01:25:30;24.00;55.30
74364;DHT22;62797;49.740;10.154;2023-08-20T01:30:27;24.10;54.70
74364;DHT22;62797;49.740;10.154;2023-08-20T01:32:54;24.10;55.00
74364;DHT22;62797;49.740;10.154;2023-08-20T01:35:20;24.10;54.90
74364;DHT22;62797;49.740;10.154;2023-08-20T01:37:46;24.10;55.20
74364;DHT22;62797;49.740;10.154;2023-08-20T01:40:12;24.00;55.20
74364;DHT22;62797;49.740;10.154;2023-08-20T01:42:38;24.00;55.40
74364;DHT22;62797;49.740;10.154;2023-08-20T01:45:06;23.90;55.70
74364;DHT22;62797;49.740;10.154;2023-08-20T01:47:33;23.90;55.50
74364;DHT22;62797;49.740;10.154;2023-08-20T01:50:00;23.90;55.90
74364;DHT22;62797;49.740;10.154;2023-08-20T01:52:26;23.80;55.90
74364;DHT22;62797;49.740;10.154;2023-08-20T01:54:52;23.80;55.90
74364;DHT22;62797;49.740;10.154;2023-08-20T01:57:19;23.80;55.60
74364;DHT22;62797;49.740;10.154;2023-08-20T01:59:45;23.80;56.20
74364;DHT22;62797;49.740;10.154;2023-08-20T02:02:11;23.70;56.80
74364;DHT22;62797;49.740;10.154;2023-08-20T02:04:36;23.60;56.50
74364;DHT22;62797;49.740;10.154;2023-08-20T02:07:04;23.50;57.20
74364;DHT22;62797;49.740;10.154;2023-08-20T02:09:30;23.60;57.40
74364;DHT22;62797;49.740;10.154;2023-08-20T02:11:56;23.50;57.30
74364;DHT22;62797;49.740;10.154;2023-08-20T02:14:22;23.40;57.90
74364;DHT22;62797;49.740;10.154;2023-08-20T02:16:48;23.40;58.00
74364;DHT22;62797;49.740;10.154;2023-08-20T02:19:14;23.40;58.10
74364;DHT22;62797;49.740;10.154;2023-08-20T02:21:40;23.30;58.50
74364;DHT22;62797;49.740;10.154;2023-08-20T02:24:06;23.20;58.70
74364;DHT22;62797;49.740;10.154;2023-08-20T02:26:32;23.10;58.90
74364;DHT22;62797;49.740;10.154;2023-08-20T02:28:58;23.20;59.00
74364;DHT22;62797;49.740;10.154;2023-08-20T02:31:24;23.20;59.70
74364;DHT22;62797;49.740;10.154;2023-08-20T02:33:50;23.10;60.00
74364;DHT22;62797;49.740;10.154;2023-08-20T02:36:15;23.20;59.80
74364;DHT22;62797;49.740;10.154;2023-08-20T02:38:42;23.20;59.40
74364;DHT22;62797;49.740;10.154;2023-08-20T02:41:08;23.20;59.00
74364;DHT22;62797;49.740;10.154;2023-08-20T02:43:34;23.20;59.10
74364;DHT22;62797;49.740;10.154;2023-08-20T02:46:00;23.20;59.20
74364;DHT22;62797;49.740;10.154;2023-08-20T02:48:26;23.10;59.70
74364;DHT22;62797;49.740;10.154;2023-08-20T02:50:53;23.10;59.50
74364;DHT22;62797;49.740;10.154;2023-08-20T02:53:21;23.10;59.20
74364;DHT22;62797;49.740;10.154;2023-08-20T02:55:46;23.00;59.80
74364;DHT22;62797;49.740;10.154;2023-08-20T02:58:12;23.00;60.00
74364;DHT22;62797;49.740;10.154;2023-08-20T03:00:39;22.90;59.90
74364;DHT22;62797;49.740;10.154;2023-08-20T03:03:06;22.90;60.20
74364;DHT22;62797;49.740;10.154;2023-08-20T03:05:34;22.90;60.10
74364;DHT22;62797;49.740;10.154;2023-08-20T03:08:01;22.80;60.40
74364;DHT22;62797;49.740;10.154;2023-08-20T03:10:27;22.80;60.30
74364;DHT22;62797;49.740;10.154;2023-08-20T03:12:53;22.80;60.60
74364;DHT22;62797;49.740;10.154;2023-08-20T03:15:19;22.70;60.80
74364;DHT22;62797;49.740;10.154;2023-08-20T03:17:45;22.60;62.00
74364;DHT22;62797;49.740;10.154;2023-08-20T03:20:11;22.70;61.70
74364;DHT22;62797;49.740;10.154;2023-08-20T03:22:38;22.60;61.50
74364;DHT22;62797;49.740;10.154;2023-08-20T03:25:04;22.50;62.10
74364;DHT22;62797;49.740;10.154;2023-08-20T03:27:31;22.50;62.00
74364;DHT22;62797;49.740;10.154;2023-08-20T03:29:56;22.50;62.30
74364;DHT22;62797;49.740;10.154;2023-08-20T03:32:23;22.40;63.00
74364;DHT22;62797;49.740;10.154;2023-08-20T03:34:49;22.40;63.30
74364;DHT22;62797;49.740;10.154;2023-08-20T03:37:17;22.40;63.40
74364;DHT22;62797;49.740;10.154;2023-08-20T03:39:44;22.30;63.80
74364;DHT22;62797;49.740;10.154;2023-08-20T03:42:10;22.30;63.10
74364;DHT22;62797;49.740;10.154;2023-08-20T03:44:37;22.20;63.60
74364;DHT22;62797;49.740;10.154;2023-08-20T03:47:02;22.10;64.30
74364;DHT22;62797;49.740;10.154;2023-08-20T03:49:28;22.10;64.50
74364;DHT22;62797;49.740;10.154;2023-08-20T03:51:54;22.10;63.50
74364;DHT22;62797;49.740;10.154;2023-08-20T03:54:20;22.10;63.80
74364;DHT22;62797;49.740;10.154;2023-08-20T03:56:46;22.10;64.50
74364;DHT22;62797;49.740;10.154;2023-08-20T03:59:12;22.10;64.00
74364;DHT22;62797;49.740;10.154;2023-08-20T04:01:38;22.00;64.10
74364;DHT22;62797;49.740;10.154;2023-08-20T04:04:04;22.00;63.70
74364;DHT22;62797;49.740;10.154;2023-08-20T04:06:30;22.00;63.10
74364;DHT22;62797;49.740;10.154;2023-08-20T04:08:56;21.90;63.20
74364;DHT22;62797;49.740;10.154;2023-08-20T04:11:22;21.90;63.80
74364;DHT22;62797;49.740;10.154;2023-08-20T04:13:48;21.90;63.70
74364;DHT22;62797;49.740;10.154;2023-08-20T04:16:14;21.90;63.70
74364;DHT22;62797;49.740;10.154;2023-08-20T04:18:40;21.80;64.90
74364;DHT22;62797;49.740;10.154;2023-08-20T04:21:06;21.70;64.90
74364;DHT22;62797;49.740;10.154;2023-08-20T04:23:34;21.70;64.80
74364;DHT22;62797;49.740;10.154;2023-08-20T04:25:59;21.70;64.60
74364;DHT22;62797;49.740;10.154;2023-08-20T04:28:26;21.70;64.30
74364;DHT22;62797;49.740;10.154;2023-08-20T04:30:55;21.70;64.60
74364;DHT22;62797;49.740;10.154;2023-08-20T04:33:26;21.70;64.50
74364;DHT22;62797;49.740;10.154;2023-08-20T04:35:52;21.60;64.80
74364;DHT22;62797;49.740;10.154;2023-08-20T04:38:18;21.70;65.20
74364;DHT22;62797;49.740;10.154;2023-08-20T04:40:50;21.70;65.30
74364;DHT22;62797;49.740;10.154;2023-08-20T04:43:16;21.70;64.90
74364;DHT22;62797;49.740;10.154;2023-08-20T04:45:42;21.70;64.60
74364;DHT22;62797;49.740;10.154;2023-08-20T04:48:08;21.70;64.60
74364;DHT22;62797;49.740;10.154;2023-08-20T04:50:34;21.70;64.30
74364;DHT22;62797;49.740;10.154;2023-08-20T04:53:00;21.70;64.10
74364;DHT22;62797;49.740;10.154;2023-08-20T04:55:30;21.70;63.60
74364;DHT22;62797;49.740;10.154;2023-08-20T04:57:57;21.70;64.40
74364;DHT22;62797;49.740;10.154;2023-08-20T05:00:24;21.70;64.80
74364;DHT22;62797;49.740;10.154;2023-08-20T05:02:55;21.70;64.40
74364;DHT22;62797;49.740;10.154;2023-08-20T05:05:22;21.70;64.70
74364;DHT22;62797;49.740;10.154;2023-08-20T05:07:49;21.60;65.60
74364;DHT22;62797;49.740;10.154;2023-08-20T05:10:15;21.60;66.00
74364;DHT22;62797;49.740;10.154;2023-08-20T05:12:41;21.70;65.40
74364;DHT22;62797;49.740;10.154;2023-08-20T05:15:08;21.70;64.70
74364;DHT22;62797;49.740;10.154;2023-08-20T05:17:34;21.70;64.50
74364;DHT22;62797;49.740;10.154;2023-08-20T05:20:01;21.70;64.60
74364;DHT22;62797;49.740;10.154;2023-08-20T05:22:27;21.70;65.20
74364;DHT22;62797;49.740;10.154;2023-08-20T05:24:53;21.80;65.20
74364;DHT22;62797;49.740;10.154;2023-08-20T05:27:19;21.80;65.00
74364;DHT22;62797;49.740;10.154;2023-08-20T05:29:48;21.80;65.30
74364;DHT22;62797;49.740;10.154;2023-08-20T05:32:15;21.80;65.00
74364;DHT22;62797;49.740;10.154;2023-08-20T05:34:42;21.80;64.80
74364;DHT22;62797;49.740;10.154;2023-08-20T05:37:08;21.90;65.10
74364;DHT22;62797;49.740;10.154;2023-08-20T05:39:41;21.90;66.60
74364;DHT22;62797;49.740;10.154;2023-08-20T05:42:07;21.90;66.50
74364;DHT22;62797;49.740;10.154;2023-08-20T05:44:33;22.00;65.80
74364;DHT22;62797;49.740;10.154;2023-08-20T05:46:59;22.10;66.00
74364;DHT22;62797;49.740;10.154;2023-08-20T05:49:27;22.10;65.80
74364;DHT22;62797;49.740;10.154;2023-08-20T05:51:52;22.20;66.10
74364;DHT22;62797;49.740;10.154;2023-08-20T05:54:19;22.20;66.10
74364;DHT22;62797;49.740;10.154;2023-08-20T05:56:45;22.30;66.20
74364;DHT22;62797;49.740;10.154;2023-08-20T05:59:11;22.30;66.50
74364;DHT22;62797;49.740;10.154;2023-08-20T06:01:37;22.30;66.70
74364;DHT22;62797;49.740;10.154;2023-08-20T06:04:03;22.40;66.40
74364;DHT22;62797;49.740;10.154;2023-08-20T06:06:29;22.50;66.30
74364;DHT22;62797;49.740;10.154;2023-08-20T06:08:54;22.60;65.40
74364;DHT22;62797;49.740;10.154;2023-08-20T06:11:20;22.70;65.50
74364;DHT22;62797;49.740;10.154;2023-08-20T06:13:46;22.80;65.50
74364;DHT22;62797;49.740;10.154;2023-08-20T06:16:12;22.90;65.60
74364;DHT22;62797;49.740;10.154;2023-08-20T06:18:38;23.00;64.40
74364;DHT22;62797;49.740;10.154;2023-08-20T06:21:04;23.10;63.40
74364;DHT22;62797;49.740;10.154;2023-08-20T06:23:30;23.20;62.60
74364;DHT22;62797;49.740;10.154;2023-08-20T06:25:55;23.30;62.40
74364;DHT22;62797;49.740;10.154;2023-08-20T06:28:21;23.40;61.90
74364;DHT22;62797;49.740;10.154;2023-08-20T06:30:47;23.50;62.30
74364;DHT22;62797;49.740;10.154;2023-08-20T06:33:13;23.60;62.20
74364;DHT22;62797;49.740;10.154;2023-08-20T06:35:39;23.80;62.20
74364;DHT22;62797;49.740;10.154;2023-08-20T06:38:07;23.80;61.80
74364;DHT22;62797;49.740;10.154;2023-08-20T06:40:33;23.90;61.70
74364;DHT22;62797;49.740;10.154;2023-08-20T06:42:59;24.10;61.10
74364;DHT22;62797;49.740;10.154;2023-08-20T06:45:25;24.10;60.30
74364;DHT22;62797;49.740;10.154;2023-08-20T06:47:51;24.20;60.00
74364;DHT22;62797;49.740;10.154;2023-08-20T06:50:17;24.30;59.90
74364;DHT22;62797;49.740;10.154;2023-08-20T06:52:42;24.40;59.50
74364;DHT22;62797;49.740;10.154;2023-08-20T06:55:08;24.50;59.50
74364;DHT22;62797;49.740;10.154;2023-08-20T06:57:34;24.60;58.00
74364;DHT22;62797;49.740;10.154;2023-08-20T07:00:01;24.70;58.10
74364;DHT22;62797;49.740;10.154;2023-08-20T07:02:26;24.70;57.10
74364;DHT22;62797;49.740;10.154;2023-08-20T07:04:52;24.80;57.00
74364;DHT22;62797;49.740;10.154;2023-08-20T07:07:19;24.80;57.30
74364;DHT22;62797;49.740;10.154;2023-08-20T07:09:45;24.90;57.10
74364;DHT22;62797;49.740;10.154;2023-08-20T07:12:10;25.00;56.30
74364;DHT22;62797;49.740;10.154;2023-08-20T07:14:36;25.10;54.50
74364;DHT22;62797;49.740;10.154;2023-08-20T07:17:02;25.20;54.50
74364;DHT22;62797;49.740;10.154;2023-08-20T07:19:29;25.20;55.00
74364;DHT22;62797;49.740;10.154;2023-08-20T07:21:55;25.40;54.20
74364;DHT22;62797;49.740;10.154;2023-08-20T07:24:21;25.50;54.40
74364;DHT22;62797;49.740;10.154;2023-08-20T07:26:54;25.50;54.70
74364;DHT22;62797;49.740;10.154;2023-08-20T07:29:25;25.70;54.20
74364;DHT22;62797;49.740;10.154;2023-08-20T07:31:51;25.80;52.40
74364;DHT22;62797;49.740;10.154;2023-08-20T07:34:19;25.80;52.00
74364;DHT22;62797;49.740;10.154;2023-08-20T07:36:45;25.90;51.30
74364;DHT22;62797;49.740;10.154;2023-08-20T07:39:12;26.00;51.30
74364;DHT22;62797;49.740;10.154;2023-08-20T07:41:40;26.10;50.30
74364;DHT22;62797;49.740;10.154;2023-08-20T07:44:06;26.00;50.10
74364;DHT22;62797;49.740;10.154;2023-08-20T07:46:32;26.00;50.40
74364;DHT22;62797;49.740;10.154;2023-08-20T07:48:58;26.10;50.50
74364;DHT22;62797;49.740;10.154;2023-08-20T07:51:24;26.10;50.30
74364;DHT22;62797;49.740;10.154;2023-08-20T07:53:50;26.20;50.10
74364;DHT22;62797;49.740;10.154;2023-08-20T07:56:16;26.20;50.20
74364;DHT22;62797;49.740;10.154;2023-08-20T07:58:42;26.30;50.50
74364;DHT22;62797;49.740;10.154;2023-08-20T08:01:11;26.40;49.60
74364;DHT22;62797;49.740;10.154;2023-08-20T08:03:40;26.60;48.30
74364;DHT22;62797;49.740;10.154;2023-08-20T08:06:06;26.80;48.90
74364;DHT22;62797;49.740;10.154;2023-08-20T08:08:32;27.00;47.80
74364;DHT22;62797;49.740;10.154;2023-08-20T08:10:58;27.10;47.30
74364;DHT22;62797;49.740;10.154;2023-08-20T08:13:25;27.20;46.30
74364;DHT22;62797;49.740;10.154;2023-08-20T08:15:51;27.20;46.40
74364;DHT22;62797;49.740;10.154;2023-08-20T08:18:18;27.20;46.60
74364;DHT22;62797;49.740;10.154;2023-08-20T08:20:43;27.30;45.20
74364;DHT22;62797;49.740;10.154;2023-08-20T08:23:09;27.30;46.10
74364;DHT22;62797;49.740;10.154;2023-08-20T08:25:36;27.40;45.70
74364;DHT22;62797;49.740;10.154;2023-08-20T08:28:04;27.40;44.60
74364;DHT22;62797;49.740;10.154;2023-08-20T08:30:30;27.40;41.10
74364;DHT22;62797;49.740;10.154;2023-08-20T08:32:56;27.30;42.00
74364;DHT22;62797;49.740;10.154;2023-08-20T08:35:21;27.30;43.80
74364;DHT22;62797;49.740;10.154;2023-08-20T08:37:47;27.30;44.40
74364;DHT22;62797;49.740;10.154;2023-08-20T08:40:13;27.30;44.50
74364;DHT22;62797;49.740;10.154;2023-08-20T08:42:40;27.30;44.50
74364;DHT22;62797;49.740;10.154;2023-08-20T08:45:06;27.40;43.10
74364;DHT22;62797;49.740;10.154;2023-08-20T08:47:32;27.40;44.80
74364;DHT22;62797;49.740;10.154;2023-08-20T08:49:59;27.70;44.20
74364;DHT22;62797;49.740;10.154;2023-08-20T08:52:26;27.90;42.90
74364;DHT22;62797;49.740;10.154;2023-08-20T08:54:52;28.00;42.30
74364;DHT22;62797;49.740;10.154;2023-08-20T08:57:18;28.10;40.90
74364;DHT22;62797;49.740;10.154;2023-08-20T08:59:44;28.20;41.00
74364;DHT22;62797;49.740;10.154;2023-08-20T09:02:11;28.20;38.50
74364;DHT22;62797;49.740;10.154;2023-08-20T09:04:39;28.30;38.60
74364;DHT22;62797;49.740;10.154;2023-08-20T09:07:06;28.50;39.50
74364;DHT22;62797;49.740;10.154;2023-08-20T09:09:36;28.60;38.50
74364;DHT22;62797;49.740;10.154;2023-08-20T09:12:12;28.80;38.80
74364;DHT22;62797;49.740;10.154;2023-08-20T09:14:39;28.90;35.20
74364;DHT22;62797;49.740;10.154;2023-08-20T09:17:05;28.90;34.70
74364;DHT22;62797;49.740;10.154;2023-08-20T09:19:36;28.90;33.80
74364;DHT22;62797;49.740;10.154;2023-08-20T09:22:05;29.00;37.00
74364;DHT22;62797;49.740;10.154;2023-08-20T09:24:39;29.10;36.60
74364;DHT22;62797;49.740;10.154;2023-08-20T09:27:05;29.30;35.00
74364;DHT22;62797;49.740;10.154;2023-08-20T09:29:32;29.40;34.80
74364;DHT22;62797;49.740;10.154;2023-08-20T09:32:02;29.40;33.80
74364;DHT22;62797;49.740;10.154;2023-08-20T09:34:38;29.30;32.20
74364;DHT22;62797;49.740;10.154;2023-08-20T09:37:14;29.30;33.10
74364;DHT22;62797;49.740;10.154;2023-08-20T09:39:40;29.20;32.10
74364;DHT22;62797;49.740;10.154;2023-08-20T09:42:07;29.20;32.20
74364;DHT22;62797;49.740;10.154;2023-08-20T09:44:38;29.20;32.60
74364;DHT22;62797;49.740;10.154;2023-08-20T09:47:07;29.30;33.40
74364;DHT22;62797;49.740;10.154;2023-08-20T09:49:38;29.30;33.00
74364;DHT22;62797;49.740;10.154;2023-08-20T09:52:05;29.30;32.70
74364;DHT22;62797;49.740;10.154;2023-08-20T09:57:33;29.40;32.60
74364;DHT22;62797;49.740;10.154;2023-08-20T10:00:00;29.50;32.40
74364;DHT22;62797;49.740;10.154;2023-08-20T10:02:27;29.60;32.20
74364;DHT22;62797;49.740;10.154;2023-08-20T10:04:53;29.60;33.60
74364;DHT22;62797;49.740;10.154;2023-08-20T10:07:19;29.60;32.90
74364;DHT22;62797;49.740;10.154;2023-08-20T10:09:46;29.70;33.40
74364;DHT22;62797;49.740;10.154;2023-08-20T10:12:13;29.80;32.90
74364;DHT22;62797;49.740;10.154;2023-08-20T10:14:40;29.90;32.80
74364;DHT22;62797;49.740;10.154;2023-08-20T10:17:11;30.00;32.80
74364;DHT22;62797;49.740;10.154;2023-08-20T10:19:38;30.20;31.50
74364;DHT22;62797;49.740;10.154;2023-08-20T10:22:05;30.20;30.20
74364;DHT22;62797;49.740;10.154;2023-08-20T10:24:48;30.30;30.40
74364;DHT22;62797;49.740;10.154;2023-08-20T10:29:53;30.50;31.40
74364;DHT22;62797;49.740;10.154;2023-08-20T10:32:19;30.50;30.40
74364;DHT22;62797;49.740;10.154;2023-08-20T10:34:50;30.80;29.00
74364;DHT22;62797;49.740;10.154;2023-08-20T10:37:26;30.70;29.90
74364;DHT22;62797;49.740;10.154;2023-08-20T10:39:55;30.80;30.00
74364;DHT22;62797;49.740;10.154;2023-08-20T10:42:22;30.90;29.60
74364;DHT22;62797;49.740;10.154;2023-08-20T10:45:05;31.20;30.00
74364;DHT22;62797;49.740;10.154;2023-08-20T10:47:36;31.30;29.00
74364;DHT22;62797;49.740;10.154;2023-08-20T10:50:03;31.40;28.90
74364;DHT22;62797;49.740;10.154;2023-08-20T10:52:29;31.60;28.10
74364;DHT22;62797;49.740;10.154;2023-08-20T10:54:55;31.70;28.10
74364;DHT22;62797;49.740;10.154;2023-08-20T10:57:22;31.80;26.90
74364;DHT22;62797;49.740;10.154;2023-08-20T10:59:57;31.70;26.70
74364;DHT22;62797;49.740;10.154;2023-08-20T11:02:26;31.60;27.00
74364;DHT22;62797;49.740;10.154;2023-08-20T11:04:53;31.80;27.30
74364;DHT22;62797;49.740;10.154;2023-08-20T11:07:19;31.90;26.40
74364;DHT22;62797;49.740;10.154;2023-08-20T11:09:45;31.90;26.50
74364;DHT22;62797;49.740;10.154;2023-08-20T11:12:19;32.10;26.80
74364;DHT22;62797;49.740;10.154;2023-08-20T11:14:46;32.20;25.90
74364;DHT22;62797;49.740;10.154;2023-08-20T11:17:13;32.40;26.00
74364;DHT22;62797;49.740;10.154;2023-08-20T11:19:40;32.50;25.70
74364;DHT22;62797;49.740;10.154;2023-08-20T11:22:06;32.60;25.60
74364;DHT22;62797;49.740;10.154;2023-08-20T11:24:31;32.60;24.40
74364;DHT22;62797;49.740;10.154;2023-08-20T11:26:58;32.70;25.20
74364;DHT22;62797;49.740;10.154;2023-08-20T11:29:25;32.80;25.00
74364;DHT22;62797;49.740;10.154;2023-08-20T11:31:51;32.80;24.60
74364;DHT22;62797;49.740;10.154;2023-08-20T11:34:20;32.80;24.80
74364;DHT22;62797;49.740;10.154;2023-08-20T11:36:46;32.90;23.90
74364;DHT22;62797;49.740;10.154;2023-08-20T11:39:13;32.90;24.50
74364;DHT22;62797;49.740;10.154;2023-08-20T11:41:39;32.90;23.20
74364;DHT22;62797;49.740;10.154;2023-08-20T11:44:08;32.70;23.30
74364;DHT22;62797;49.740;10.154;2023-08-20T11:46:42;32.60;22.90
74364;DHT22;62797;49.740;10.154;2023-08-20T11:49:10;32.70;24.00
74364;DHT22;62797;49.740;10.154;2023-08-20T11:51:38;32.80;22.10
74364;DHT22;62797;49.740;10.154;2023-08-20T11:54:11;32.80;24.40
74364;DHT22;62797;49.740;10.154;2023-08-20T11:56:46;32.90;23.10
74364;DHT22;62797;49.740;10.154;2023-08-20T11:59:13;33.00;22.40
74364;DHT22;62797;49.740;10.154;2023-08-20T12:01:39;33.20;23.60
74364;DHT22;62797;49.740;10.154;2023-08-20T12:04:05;33.40;22.10
74364;DHT22;62797;49.740;10.154;2023-08-20T12:06:33;33.30;21.70
74364;DHT22;62797;49.740;10.154;2023-08-20T12:09:01;33.30;22.60
74364;DHT22;62797;49.740;10.154;2023-08-20T12:11:28;33.30;22.10
74364;DHT22;62797;49.740;10.154;2023-08-20T12:13:54;33.30;22.80
74364;DHT22;62797;49.740;10.154;2023-08-20T12:16:22;33.30;23.00
74364;DHT22;62797;49.740;10.154;2023-08-20T12:18:49;33.50;22.00
74364;DHT22;62797;49.740;10.154;2023-08-20T12:21:15;33.60;22.30
74364;DHT22;62797;49.740;10.154;2023-08-20T12:23:41;33.80;21.10
74364;DHT22;62797;49.740;10.154;2023-08-20T12:26:06;33.60;22.00
74364;DHT22;62797;49.740;10.154;2023-08-20T12:28:34;33.80;22.40
74364;DHT22;62797;49.740;10.154;2023-08-20T12:31:00;33.90;22.00
74364;DHT22;62797;49.740;10.154;2023-08-20T12:33:26;34.10;22.80
74364;DHT22;62797;49.740;10.154;2023-08-20T12:35:56;34.10;21.70
74364;DHT22;62797;49.740;10.154;2023-08-20T12:38:22;34.10;21.40
74364;DHT22;62797;49.740;10.154;2023-08-20T12:40:48;34.10;21.90
74364;DHT22;62797;49.740;10.154;2023-08-20T12:43:14;34.30;22.10
74364;DHT22;62797;49.740;10.154;2023-08-20T12:45:39;34.40;20.20
74364;DHT22;62797;49.740;10.154;2023-08-20T12:48:05;34.30;20.20
74364;DHT22;62797;49.740;10.154;2023-08-20T12:50:33;34.10;20.70
74364;DHT22;62797;49.740;10.154;2023-08-20T12:52:59;34.10;20.60
74364;DHT22;62797;49.740;10.154;2023-08-20T12:55:25;34.10;21.20
74364;DHT22;62797;49.740;10.154;2023-08-20T12:57:55;34.10;21.10
74364;DHT22;62797;49.740;10.154;2023-08-20T13:00:22;34.30;21.10
74364;DHT22;62797;49.740;10.154;2023-08-20T13:02:51;34.50;20.60
74364;DHT22;62797;49.740;10.154;2023-08-20T13:05:18;34.50;19.80
74364;DHT22;62797;49.740;10.154;2023-08-20T13:07:44;34.50;20.50
74364;DHT22;62797;49.740;10.154;2023-08-20T13:10:10;34.60;19.50
74364;DHT22;62797;49.740;10.154;2023-08-20T13:12:37;34.70;20.10
74364;DHT22;62797;49.740;10.154;2023-08-20T13:15:03;34.80;19.70
74364;DHT22;62797;49.740;10.154;2023-08-20T13:17:30;35.00;20.30
74364;DHT22;62797;49.740;10.154;2023-08-20T13:19:56;35.00;17.90
74364;DHT22;62797;49.740;10.154;2023-08-20T13:22:22;35.00;18.20
74364;DHT22;62797;49.740;10.154;2023-08-20T13:24:48;35.00;17.90
74364;DHT22;62797;49.740;10.154;2023-08-20T13:27:14;34.90;16.10
74364;DHT22;62797;49.740;10.154;2023-08-20T13:29:42;34.80;17.40
74364;DHT22;62797;49.740;10.154;2023-08-20T13:32:08;35.00;16.00
74364;DHT22;62797;49.740;10.154;2023-08-20T13:34:34;35.00;15.80
74364;DHT22;62797;49.740;10.154;2023-08-20T13:36:59;34.90;15.20
74364;DHT22;62797;49.740;10.154;2023-08-20T13:39:25;34.70;15.20
74364;DHT22;62797;49.740;10.154;2023-08-20T13:41:51;34.70;16.20
74364;DHT22;62797;49.740;10.154;2023-08-20T13:44:17;34.80;16.30
74364;DHT22;62797;49.740;10.154;2023-08-20T13:46:43;34.80;16.50
74364;DHT22;62797;49.740;10.154;2023-08-20T13:49:08;34.80;15.90
74364;DHT22;62797;49.740;10.154;2023-08-20T13:51:35;35.00;17.00
74364;DHT22;62797;49.740;10.154;2023-08-20T13:54:01;35.40;15.90
74364;DHT22;62797;49.740;10.154;2023-08-20T13:56:27;35.50;16.20
74364;DHT22;62797;49.740;10.154;2023-08-20T13:58:53;35.50;15.60
74364;DHT22;62797;49.740;10.154;2023-08-20T14:01:19;35.50;15.90
74364;DHT22;62797;49.740;10.154;2023-08-20T14:03:45;35.40;16.70
74364;DHT22;62797;49.740;10.154;2023-08-20T14:06:11;35.60;16.60
74364;DHT22;62797;49.740;10.154;2023-08-20T14:08:36;35.50;14.20
74364;DHT22;62797;49.740;10.154;2023-08-20T14:11:02;35.50;15.70
74364;DHT22;62797;49.740;10.154;2023-08-20T14:13:29;35.70;14.80
74364;DHT22;62797;49.740;10.154;2023-08-20T14:15:54;35.80;14.40
74364;DHT22;62797;49.740;10.154;2023-08-20T14:18:20;35.80;15.50
74364;DHT22;62797;49.740;10.154;2023-08-20T14:20:46;36.10;15.00
74364;DHT22;62797;49.740;10.154;2023-08-20T14:23:12;36.40;14.40
74364;DHT22;62797;49.740;10.154;2023-08-20T14:25:38;36.50;13.60
74364;DHT22;62797;49.740;10.154;2023-08-20T14:28:07;36.50;14.20
74364;DHT22;62797;49.740;10.154;2023-08-20T14:30:36;36.50;13.20
74364;DHT22;62797;49.740;10.154;2023-08-20T14:33:03;36.60;14.00
74364;DHT22;62797;49.740;10.154;2023-08-20T14:35:30;36.60;13.60
74364;DHT22;62797;49.740;10.154;2023-08-20T14:37:56;36.60;12.90
74364;DHT22;62797;49.740;10.154;2023-08-20T14:40:22;36.70;14.00
74364;DHT22;62797;49.740;10.154;2023-08-20T14:42:48;36.70;12.70
74364;DHT22;62797;49.740;10.154;2023-08-20T14:45:14;36.80;15.10
74364;DHT22;62797;49.740;10.154;2023-08-20T14:47:40;37.20;15.90
74364;DHT22;62797;49.740;10.154;2023-08-20T14:50:07;37.80;14.80
74364;DHT22;62797;49.740;10.154;2023-08-20T14:52:34;38.20;14.10
74364;DHT22;62797;49.740;10.154;2023-08-20T14:55:00;38.50;13.60
74364;DHT22;62797;49.740;10.154;2023-08-20T14:57:26;38.60;14.80
74364;DHT22;62797;49.740;10.154;2023-08-20T14:59:52;38.80;12.50
74364;DHT22;62797;49.740;10.154;2023-08-20T15:02:18;38.60;12.90
74364;DHT22;62797;49.740;10.154;2023-08-20T15:04:44;38.80;12.70
74364;DHT22;62797;49.740;10.154;2023-08-20T15:07:10;38.70;12.10
74364;DHT22;62797;49.740;10.154;2023-08-20T15:09:35;38.80;13.60
74364;DHT22;62797;49.740;10.154;2023-08-20T15:12:04;38.80;11.40
74364;DHT22;62797;49.740;10.154;2023-08-20T15:14:30;38.80;12.70
74364;DHT22;62797;49.740;10.154;2023-08-20T15:16:56;38.90;11.20
74364;DHT22;62797;49.740;10.154;2023-08-20T15:19:22;38.70;11.50
74364;DHT22;62797;49.740;10.154;2023-08-20T15:21:48;38.70;12.20
74364;DHT22;62797;49.740;10.154;2023-08-20T15:24:14;38.80;11.00